Terminal Aerodrome Forecast
Issued by NWS

Home | Current Version | Previous Version | Text Only | Print | Product List | Glossary On
Versions: 1 2 3 4 5 6 7 8 9 10 11 12 13 14 15 16 17 18 19 20
000
FTAK31 PAJN 231700
TAFAKT
TAF
PAKT 231737Z 2318/2418 VRB03KT 6SM BR FEW002 FEW150
      TEMPO 2318/2319 00000KT 3SM BR BKN002
     FM231900 06006KT P6SM OVC150
     FM240400 07008KT P6SM BKN060 OVC100 PROB30 2404/2408 -RA
     FM240800 07006KT P6SM OVC050 PROB30 2408/2412 -RA
     FM241400 07005KT P6SM -RA SCT020 OVC050
      AMD LTD TO CLD VIS AND WIND 2406/2415=

USA.gov is the U.S. government's official web portal to all federal, state and local government web resources and services.